Time;durP1;ratioP1;P1;durP2;ratioP2;P2;SDS_P1;SDS_P2;PMS_P1;PMS_P2;Temp;Humidity;BMP_temperature;BMP_pressure;BME280_temperature;BME280_humidity;BME280_pressure;Samples;Min_cycle;Max_cycle;Signal;HPM_P1;HPM_P2
2023/11/11 00:02:05;;;;;;;2.13;2.03;;;12.00;99.90;;;;;;5054449;28;20420;-67
2023/11/11 00:04:31;;;;;;;2.40;2.30;;;12.00;99.90;;;;;;5054719;28;20886;-67
2023/11/11 00:06:57;;;;;;;2.23;2.13;;;11.90;99.90;;;;;;5054379;28;20421;-67
2023/11/11 00:09:23;;;;;;;3.40;3.20;;;11.90;99.90;;;;;;5054674;28;20443;-67
2023/11/11 00:11:49;;;;;;;2.30;2.30;;;11.90;99.90;;;;;;5053154;28;20187;-67
2023/11/11 00:14:16;;;;;;;2.90;2.90;;;11.90;99.90;;;;;;5043207;28;20484;-67
2023/11/11 00:16:41;;;;;;;2.70;2.60;;;11.90;99.90;;;;;;5054469;28;20460;-67
2023/11/11 00:19:09;;;;;;;1.70;1.70;;;11.80;99.90;;;;;;5053978;28;20502;-68
2023/11/11 00:21:37;;;;;;;1.90;1.80;;;11.90;99.90;;;;;;5054623;28;20418;-67
2023/11/11 00:24:10;;;;;;;2.50;2.40;;;11.90;99.90;;;;;;5053987;28;20421;-67
2023/11/11 00:26:40;;;;;;;2.00;1.90;;;11.90;99.90;;;;;;5054585;28;20425;-67
2023/11/11 00:29:07;;;;;;;2.10;2.00;;;11.90;99.90;;;;;;5053844;28;20509;-67
2023/11/11 00:31:34;;;;;;;2.07;1.97;;;11.90;99.90;;;;;;5054377;28;20412;-67
2023/11/11 00:34:01;;;;;;;2.20;2.10;;;11.80;99.90;;;;;;5054320;28;20753;-67
2023/11/11 00:36:27;;;;;;;1.80;1.80;;;11.80;99.90;;;;;;5053934;28;20511;-67
2023/11/11 00:38:53;;;;;;;1.90;1.80;;;11.70;99.90;;;;;;5053612;28;20942;-67
2023/11/11 00:41:19;;;;;;;1.80;1.80;;;11.70;99.90;;;;;;5052744;28;20420;-67
2023/11/11 00:43:45;;;;;;;2.20;2.20;;;11.70;99.90;;;;;;5054436;28;20902;-67
2023/11/11 00:46:11;;;;;;;1.70;1.70;;;11.60;99.90;;;;;;5053809;28;20452;-68
2023/11/11 00:48:37;;;;;;;2.00;1.90;;;11.60;99.90;;;;;;5054135;28;20243;-67
2023/11/11 00:51:03;;;;;;;1.63;1.63;;;11.50;99.90;;;;;;5053953;28;20173;-67
2023/11/11 00:53:29;;;;;;;1.40;1.40;;;11.50;99.90;;;;;;5054201;28;20418;-67
2023/11/11 00:55:55;;;;;;;1.10;1.10;;;11.50;99.90;;;;;;5053607;28;20768;-67
2023/11/11 00:58:21;;;;;;;1.40;1.40;;;11.40;99.90;;;;;;5053925;28;20205;-68
2023/11/11 01:00:46;;;;;;;1.60;1.60;;;11.40;99.90;;;;;;5053444;28;20169;-67
2023/11/11 01:03:13;;;;;;;2.60;1.60;;;11.40;99.90;;;;;;5053721;28;20183;-67
2023/11/11 01:05:40;;;;;;;1.70;1.60;;;11.40;99.90;;;;;;5032205;28;20168;-67
2023/11/11 01:08:06;;;;;;;1.40;1.30;;;11.30;99.90;;;;;;5033335;28;20459;-67
2023/11/11 01:10:37;;;;;;;1.23;1.23;;;11.30;99.90;;;;;;5033951;28;20403;-67
2023/11/11 01:13:03;;;;;;;1.47;1.37;;;11.30;99.90;;;;;;5051585;28;20218;-67
2023/11/11 01:15:29;;;;;;;1.37;1.37;;;11.30;99.90;;;;;;5053336;28;20502;-67
2023/11/11 01:17:54;;;;;;;1.50;1.50;;;11.30;99.90;;;;;;5052824;28;20479;-67
2023/11/11 01:20:20;;;;;;;1.23;1.23;;;11.30;99.90;;;;;;5053729;28;20412;-67
2023/11/11 01:22:46;;;;;;;1.53;1.53;;;11.20;99.90;;;;;;5053748;28;20678;-67
2023/11/11 01:25:12;;;;;;;1.70;1.70;;;11.20;99.90;;;;;;5053004;28;20248;-68
2023/11/11 01:27:39;;;;;;;1.53;1.53;;;11.10;99.90;;;;;;5053548;28;20491;-67
2023/11/11 01:30:06;;;;;;;1.90;1.80;;;11.20;99.90;;;;;;5052918;28;20552;-67
2023/11/11 01:32:33;;;;;;;1.70;1.60;;;11.10;99.90;;;;;;5052973;28;20411;-67
2023/11/11 01:34:58;;;;;;;2.00;1.90;;;11.10;99.90;;;;;;5052703;28;20424;-67
2023/11/11 01:37:24;;;;;;;2.13;2.07;;;11.10;99.90;;;;;;5053339;28;20437;-67
2023/11/11 01:39:50;;;;;;;2.60;2.40;;;11.10;99.90;;;;;;5053245;28;20201;-67
2023/11/11 01:42:16;;;;;;;3.40;2.70;;;11.20;99.90;;;;;;5051513;28;20177;-67
2023/11/11 01:44:41;;;;;;;2.73;2.60;;;11.00;99.90;;;;;;5053426;28;20694;-67
2023/11/11 01:47:08;;;;;;;2.80;2.70;;;11.10;99.90;;;;;;5052430;28;20511;-67
2023/11/11 01:49:35;;;;;;;2.80;2.60;;;11.10;99.90;;;;;;5053202;28;20183;-67
2023/11/11 01:52:02;;;;;;;2.93;2.83;;;11.10;99.90;;;;;;5052561;28;20408;-67
2023/11/11 01:54:29;;;;;;;2.90;2.80;;;11.10;99.90;;;;;;5052606;28;20404;-67
2023/11/11 01:56:56;;;;;;;3.10;3.00;;;11.10;99.90;;;;;;5052335;28;20449;-67
2023/11/11 01:59:23;;;;;;;2.90;2.80;;;11.10;99.90;;;;;;5052790;28;20450;-67
2023/11/11 02:01:49;;;;;;;2.63;2.43;;;11.10;99.90;;;;;;5034794;28;20492;-67
2023/11/11 02:04:15;;;;;;;2.80;2.70;;;11.00;99.90;;;;;;5051886;28;20457;-68
2023/11/11 02:06:43;;;;;;;3.03;2.93;;;11.00;99.90;;;;;;5052668;28;20466;-67
2023/11/11 02:09:10;;;;;;;3.70;3.47;;;11.00;99.90;;;;;;5052432;28;20405;-67
2023/11/11 02:11:36;;;;;;;4.30;4.00;;;11.00;99.90;;;;;;5050754;28;20464;-68
2023/11/11 02:14:02;;;;;;;4.60;4.30;;;11.00;99.90;;;;;;5051891;28;20463;-67
2023/11/11 02:16:29;;;;;;;5.43;4.93;;;11.00;99.90;;;;;;5052208;28;20472;-67
2023/11/11 02:18:55;;;;;;;6.63;5.60;;;11.00;99.90;;;;;;5052263;28;20459;-67
2023/11/11 02:21:21;;;;;;;6.73;5.73;;;11.00;99.90;;;;;;5052621;28;20408;-67
2023/11/11 02:23:49;;;;;;;15.33;9.60;;;11.00;99.90;;;;;;5052220;28;20168;-67
2023/11/11 02:26:14;;;;;;;8.93;6.90;;;11.00;99.90;;;;;;5051862;28;20427;-67
2023/11/11 02:28:40;;;;;;;9.10;8.13;;;11.00;99.90;;;;;;5052551;28;20882;-67
2023/11/11 02:31:08;;;;;;;10.90;9.33;;;11.00;99.90;;;;;;5051983;28;20625;-67
2023/11/11 02:33:35;;;;;;;10.83;9.70;;;11.00;99.90;;;;;;5052441;28;20172;-67
2023/11/11 02:36:01;;;;;;;12.10;10.80;;;10.90;99.90;;;;;;5051757;28;20520;-67
2023/11/11 02:38:27;;;;;;;14.50;11.50;;;11.00;99.90;;;;;;5051079;28;20967;-67
2023/11/11 02:40:53;;;;;;;15.57;12.33;;;11.00;99.90;;;;;;5051871;28;20267;-67
2023/11/11 02:43:18;;;;;;;16.27;13.40;;;11.00;99.90;;;;;;5051461;28;20520;-67
2023/11/11 02:45:44;;;;;;;18.40;15.43;;;11.00;99.90;;;;;;5052679;28;20623;-68
2023/11/11 02:48:10;;;;;;;16.07;14.40;;;10.90;99.90;;;;;;5051423;28;20663;-67
2023/11/11 02:50:36;;;;;;;17.47;13.90;;;11.00;99.90;;;;;;5052386;28;20208;-67
2023/11/11 02:53:01;;;;;;;19.17;14.40;;;11.00;99.90;;;;;;5051609;28;20228;-67
2023/11/11 02:55:27;;;;;;;21.63;16.00;;;11.00;99.90;;;;;;5052113;28;20178;-67
2023/11/11 02:57:53;;;;;;;18.73;15.37;;;11.10;99.90;;;;;;5052403;28;20261;-67
2023/11/11 03:00:21;;;;;;;18.90;15.77;;;11.10;99.90;;;;;;5051644;28;20618;-67
2023/11/11 03:02:46;;;;;;;21.03;16.07;;;11.10;99.90;;;;;;5051689;28;20481;-67
2023/11/11 03:05:12;;;;;;;19.07;15.50;;;11.20;99.90;;;;;;5051515;28;20872;-67
2023/11/11 03:07:38;;;;;;;21.97;16.10;;;11.10;99.90;;;;;;5051083;28;20172;-67
2023/11/11 03:10:04;;;;;;;17.03;15.20;;;11.20;99.90;;;;;;5051269;28;20173;-67
2023/11/11 03:12:32;;;;;;;19.80;16.70;;;11.10;99.90;;;;;;5052326;28;20418;-68
2023/11/11 03:14:58;;;;;;;17.70;15.37;;;11.20;99.90;;;;;;5050953;28;20540;-67
2023/11/11 03:17:27;;;;;;;18.10;15.07;;;11.20;99.90;;;;;;5052162;28;20416;-67
2023/11/11 03:19:53;;;;;;;22.83;14.60;;;11.20;99.90;;;;;;5051948;28;20444;-67
2023/11/11 03:22:19;;;;;;;17.73;15.37;;;11.20;99.90;;;;;;5051388;28;20407;-67
2023/11/11 03:24:45;;;;;;;20.50;15.60;;;11.10;99.90;;;;;;5055524;28;20760;-67
2023/11/11 03:27:11;;;;;;;18.30;14.40;;;11.10;99.90;;;;;;5055261;28;20560;-67
2023/11/11 03:29:37;;;;;;;17.97;14.57;;;11.10;99.90;;;;;;5037983;28;20501;-67
2023/11/11 03:32:03;;;;;;;17.97;14.23;;;11.10;99.90;;;;;;5055161;28;20424;-67
2023/11/11 03:34:28;;;;;;;18.57;13.83;;;11.10;99.90;;;;;;5055465;28;20520;-67
2023/11/11 03:36:54;;;;;;;18.10;14.40;;;11.10;99.90;;;;;;5054785;28;20504;-67
2023/11/11 03:39:20;;;;;;;17.37;14.77;;;11.20;99.90;;;;;;5050884;28;20213;-67
2023/11/11 03:41:46;;;;;;;18.27;14.30;;;11.10;99.90;;;;;;5055442;28;20172;-67
2023/11/11 03:44:11;;;;;;;17.70;13.30;;;11.10;99.90;;;;;;5054964;28;20172;-67
2023/11/11 03:46:37;;;;;;;17.37;13.33;;;11.10;99.90;;;;;;5055357;28;20170;-67
2023/11/11 03:49:03;;;;;;;15.93;14.20;;;11.10;99.90;;;;;;5054518;28;20180;-67
2023/11/11 03:51:29;;;;;;;16.20;14.33;;;11.00;99.90;;;;;;5055695;28;20423;-67
2023/11/11 03:53:55;;;;;;;15.57;13.57;;;11.10;99.90;;;;;;5055080;28;20422;-67
2023/11/11 03:56:21;;;;;;;16.43;14.00;;;11.10;99.90;;;;;;5055292;28;20176;-67
2023/11/11 03:58:47;;;;;;;19.37;13.53;;;11.10;99.90;;;;;;5055334;28;20199;-67
2023/11/11 04:01:13;;;;;;;14.43;12.90;;;11.10;99.90;;;;;;5054974;28;20408;-67
2023/11/11 04:03:39;;;;;;;14.73;12.90;;;11.00;99.90;;;;;;5054980;28;20553;-67
2023/11/11 04:06:06;;;;;;;14.77;12.87;;;11.10;99.90;;;;;;5054556;28;20410;-67
2023/11/11 04:08:34;;;;;;;16.80;13.43;;;11.10;99.90;;;;;;5054178;28;20434;-67
2023/11/11 04:11:02;;;;;;;15.03;13.13;;;11.10;99.90;;;;;;5055295;28;20411;-67
2023/11/11 04:13:28;;;;;;;16.83;13.57;;;11.10;99.90;;;;;;5055282;28;20408;-67
2023/11/11 04:15:54;;;;;;;15.50;13.60;;;11.00;99.90;;;;;;5054457;28;20898;-67
2023/11/11 04:18:20;;;;;;;16.83;13.60;;;11.00;99.90;;;;;;5054235;28;20447;-67
2023/11/11 04:20:45;;;;;;;13.63;11.83;;;11.10;99.90;;;;;;5054665;28;20178;-67
2023/11/11 04:23:11;;;;;;;14.97;13.40;;;11.00;99.90;;;;;;5054290;28;20170;-67
2023/11/11 04:25:37;;;;;;;15.77;14.07;;;11.00;99.90;;;;;;5037060;28;20170;-67
2023/11/11 04:28:03;;;;;;;16.40;14.43;;;11.00;99.90;;;;;;5054117;28;20614;-67
2023/11/11 04:30:29;;;;;;;15.70;13.63;;;11.00;99.90;;;;;;5054766;28;20172;-67
2023/11/11 04:32:54;;;;;;;14.90;13.37;;;11.00;99.90;;;;;;5054666;28;20443;-68
2023/11/11 04:35:21;;;;;;;15.03;13.47;;;10.90;99.90;;;;;;5052372;28;20742;-67
2023/11/11 04:37:49;;;;;;;17.20;14.00;;;10.90;99.90;;;;;;5053373;28;20170;-68
2023/11/11 04:40:15;;;;;;;18.80;14.80;;;10.90;99.90;;;;;;5041785;28;20423;-67
2023/11/11 04:42:43;;;;;;;15.87;14.17;;;10.90;99.90;;;;;;5054501;28;20475;-67
2023/11/11 04:45:09;;;;;;;18.60;15.10;;;10.90;99.90;;;;;;5053953;28;20412;-67
2023/11/11 04:47:35;;;;;;;17.97;14.60;;;10.90;99.90;;;;;;5054402;28;20404;-67
2023/11/11 04:50:02;;;;;;;16.57;14.80;;;11.10;99.90;;;;;;5054192;28;20416;-67
2023/11/11 04:52:27;;;;;;;16.30;14.40;;;11.20;99.90;;;;;;5053327;28;20542;-67
2023/11/11 04:54:53;;;;;;;16.47;14.77;;;11.10;99.90;;;;;;5054322;28;20427;-67
2023/11/11 04:57:19;;;;;;;16.33;14.63;;;11.20;99.90;;;;;;5053603;28;20177;-67
2023/11/11 04:59:44;;;;;;;17.33;15.07;;;11.20;99.90;;;;;;5054109;28;20200;-68
2023/11/11 05:02:10;;;;;;;16.40;14.80;;;11.20;99.90;;;;;;5053539;28;20169;-68
2023/11/11 05:04:36;;;;;;;15.97;14.33;;;11.40;99.90;;;;;;5054053;28;20171;-67
2023/11/11 05:07:03;;;;;;;16.73;14.93;;;11.20;99.90;;;;;;5053165;28;20177;-67
2023/11/11 05:09:29;;;;;;;19.00;16.23;;;11.10;99.90;;;;;;5054009;28;20870;-67
2023/11/11 05:11:55;;;;;;;17.57;15.23;;;11.10;99.90;;;;;;5053881;28;20442;-67
2023/11/11 05:14:23;;;;;;;16.10;14.50;;;11.10;99.90;;;;;;5053339;28;20547;-67
2023/11/11 05:16:54;;;;;;;15.93;14.30;;;11.10;99.90;;;;;;5053548;28;20567;-67
2023/11/11 05:19:23;;;;;;;16.63;14.90;;;11.10;99.90;;;;;;5053125;28;20482;-67
2023/11/11 05:21:49;;;;;;;14.87;13.27;;;11.10;99.90;;;;;;5052937;28;20450;-67
2023/11/11 05:24:14;;;;;;;14.53;12.83;;;11.10;99.90;;;;;;5053043;28;20478;-67
2023/11/11 05:26:42;;;;;;;13.90;12.13;;;11.00;99.90;;;;;;5053783;28;20168;-67
2023/11/11 05:29:08;;;;;;;13.67;12.30;;;11.00;99.90;;;;;;5052821;28;20421;-67
2023/11/11 05:31:34;;;;;;;13.60;12.30;;;11.00;99.90;;;;;;5053813;28;20407;-67
2023/11/11 05:34:01;;;;;;;12.80;11.60;;;11.00;99.90;;;;;;5053326;28;20953;-67
2023/11/11 05:36:27;;;;;;;11.77;10.80;;;11.00;99.90;;;;;;5052543;28;20423;-67
2023/11/11 05:38:54;;;;;;;13.10;11.90;;;11.00;99.90;;;;;;5050892;28;20468;-67
2023/11/11 05:41:21;;;;;;;12.47;11.37;;;11.10;99.90;;;;;;5053018;28;20418;-67
2023/11/11 05:43:47;;;;;;;11.00;10.00;;;11.00;99.90;;;;;;5053312;28;20403;-67
2023/11/11 05:46:12;;;;;;;11.80;10.60;;;11.00;99.90;;;;;;5051758;28;20787;-67
2023/11/11 05:48:45;;;;;;;10.97;9.97;;;11.00;99.90;;;;;;5053270;28;20466;-67
2023/11/11 05:51:12;;;;;;;11.10;9.57;;;11.00;99.90;;;;;;5051711;28;20227;-66
2023/11/11 05:53:38;;;;;;;12.23;11.13;;;11.00;99.90;;;;;;5052687;28;20869;-68
2023/11/11 05:56:04;;;;;;;9.70;8.83;;;11.00;99.90;;;;;;5052944;28;20433;-67
2023/11/11 05:58:30;;;;;;;11.37;10.27;;;11.00;99.90;;;;;;5052336;28;20928;-68
2023/11/11 06:00:58;;;;;;;11.10;10.00;;;11.00;99.90;;;;;;5053260;28;20411;-68
2023/11/11 06:03:24;;;;;;;12.03;10.93;;;11.00;99.90;;;;;;5051300;28;20555;-67
2023/11/11 06:05:50;;;;;;;11.03;10.03;;;11.00;99.90;;;;;;5052572;28;20426;-67
2023/11/11 06:08:15;;;;;;;11.77;10.70;;;10.90;99.90;;;;;;5051624;28;20412;-65
2023/11/11 06:10:42;;;;;;;9.60;8.80;;;10.90;99.90;;;;;;5051022;28;20625;-68
2023/11/11 06:13:09;;;;;;;8.53;7.90;;;10.90;99.90;;;;;;5051508;28;20816;-63
2023/11/11 06:15:36;;;;;;;9.03;8.30;;;11.00;99.90;;;;;;5068846;28;20928;-67
2023/11/11 06:18:02;;;;;;;8.43;7.73;;;10.90;99.90;;;;;;5092845;28;20427;-67
2023/11/11 06:20:28;;;;;;;8.30;7.60;;;10.90;99.90;;;;;;5074571;28;20726;-68
2023/11/11 06:22:54;;;;;;;8.60;7.90;;;10.70;99.90;;;;;;5072370;28;20517;-68
2023/11/11 06:25:21;;;;;;;8.30;7.50;;;10.90;99.90;;;;;;5054106;28;20900;-68
2023/11/11 06:27:48;;;;;;;8.40;7.70;;;10.80;99.90;;;;;;5072599;28;20406;-67
2023/11/11 06:30:19;;;;;;;8.07;7.40;;;10.70;99.90;;;;;;5071081;28;20429;-68
2023/11/11 06:32:51;;;;;;;7.40;6.80;;;10.70;99.90;;;;;;5072275;28;20803;-68
2023/11/11 06:35:18;;;;;;;6.80;6.30;;;10.70;99.90;;;;;;5071202;28;20400;-67
2023/11/11 06:37:45;;;;;;;7.80;7.10;;;10.80;99.90;;;;;;5054023;28;20426;-67
2023/11/11 06:40:12;;;;;;;6.60;5.70;;;10.60;99.90;;;;;;5082774;28;20461;-66
2023/11/11 06:42:38;;;;;;;6.27;5.73;;;10.80;99.90;;;;;;5091769;28;20412;-67
2023/11/11 06:45:05;;;;;;;5.80;5.30;;;10.70;99.90;;;;;;5092462;28;20822;-67
2023/11/11 06:47:34;;;;;;;6.03;5.57;;;10.70;99.90;;;;;;5090862;28;20909;-67
2023/11/11 06:50:00;;;;;;;6.30;5.73;;;10.70;99.90;;;;;;5072205;28;20740;-67
2023/11/11 06:52:26;;;;;;;5.47;5.03;;;10.80;99.90;;;;;;5071384;28;20421;-67
2023/11/11 06:54:52;;;;;;;5.87;5.37;;;10.90;99.90;;;;;;5072322;28;20593;-67
2023/11/11 06:57:19;;;;;;;5.60;5.10;;;10.80;99.90;;;;;;5089110;28;20437;-67
2023/11/11 06:59:45;;;;;;;5.10;4.70;;;10.80;99.90;;;;;;5096651;28;21018;-67
2023/11/11 07:02:12;;;;;;;5.73;5.27;;;10.80;99.90;;;;;;5078414;28;20508;-61
2023/11/11 07:04:40;;;;;;;5.67;5.10;;;10.80;99.90;;;;;;5058020;28;20170;-68
2023/11/11 07:07:07;;;;;;;5.50;4.70;;;10.80;99.90;;;;;;5076001;28;20419;-67
2023/11/11 07:09:34;;;;;;;5.30;4.97;;;10.80;99.90;;;;;;5072551;28;20438;-65
2023/11/11 07:12:00;;;;;;;4.87;4.50;;;10.70;99.90;;;;;;5077455;28;20521;-67
2023/11/11 07:14:26;;;;;;;5.43;4.93;;;10.80;99.90;;;;;;5057863;28;20403;-67
2023/11/11 07:16:52;;;;;;;6.77;5.63;;;10.80;99.90;;;;;;5056959;28;20520;-66
2023/11/11 07:19:19;;;;;;;5.77;5.40;;;10.90;99.90;;;;;;5054877;28;20241;-65
2023/11/11 07:21:45;;;;;;;6.27;5.77;;;10.80;99.90;;;;;;5055996;28;20408;-66
2023/11/11 07:24:10;;;;;;;6.03;5.43;;;10.80;99.90;;;;;;5021559;28;20934;-66
2023/11/11 07:26:36;;;;;;;5.30;4.80;;;11.10;99.90;;;;;;5055294;28;20165;-67
2023/11/11 07:29:02;;;;;;;5.77;5.27;;;10.90;99.90;;;;;;5055741;28;20408;-66
2023/11/11 07:31:28;;;;;;;5.47;5.10;;;10.90;99.90;;;;;;5054977;28;20231;-66
2023/11/11 07:33:54;;;;;;;5.80;5.30;;;10.90;99.90;;;;;;5055560;28;20908;-67
2023/11/11 07:36:20;;;;;;;5.13;4.83;;;10.90;99.90;;;;;;5054969;28;20167;-66
2023/11/11 07:38:46;;;;;;;5.40;4.90;;;10.80;99.90;;;;;;5055591;28;20591;-66
2023/11/11 07:41:16;;;;;;;5.17;4.87;;;11.00;99.90;;;;;;5054430;28;20530;-65
2023/11/11 07:43:42;;;;;;;5.83;5.40;;;10.90;99.90;;;;;;5055524;28;20187;-67
2023/11/11 07:46:09;;;;;;;6.50;5.87;;;10.90;99.90;;;;;;5054408;28;20442;-66
2023/11/11 07:48:35;;;;;;;8.33;5.40;;;10.90;99.90;;;;;;5054829;28;20232;-69
2023/11/11 07:51:02;;;;;;;7.27;6.77;;;11.00;99.90;;;;;;5055441;28;20422;-68
2023/11/11 07:53:28;;;;;;;7.20;6.50;;;11.30;99.90;;;;;;5054568;28;20492;-67
2023/11/11 07:55:54;;;;;;;7.37;6.67;;;11.60;99.90;;;;;;5053820;28;20523;-67
2023/11/11 07:58:20;;;;;;;8.53;7.80;;;12.30;99.90;;;;;;5051280;28;20200;-67
2023/11/11 08:00:47;;;;;;;7.47;6.97;;;12.80;99.90;;;;;;5054750;28;20412;-67
2023/11/11 08:03:12;;;;;;;7.63;6.93;;;13.20;99.90;;;;;;5036308;28;20195;-68
2023/11/11 08:05:38;;;;;;;7.83;7.03;;;13.60;99.90;;;;;;5054191;28;20414;-71
2023/11/11 08:08:04;;;;;;;8.90;8.10;;;14.00;99.90;;;;;;5053114;28;20209;-66
2023/11/11 08:10:31;;;;;;;7.30;6.70;;;14.20;99.90;;;;;;5036463;28;20170;-66
2023/11/11 08:12:57;;;;;;;9.20;8.30;;;14.50;99.90;;;;;;5051612;28;20411;-67
2023/11/11 08:15:23;;;;;;;7.87;7.13;;;14.60;99.90;;;;;;5053011;28;20449;-66
2023/11/11 08:17:49;;;;;;;8.80;7.97;;;14.70;99.90;;;;;;5053024;28;20482;-66
2023/11/11 08:20:16;;;;;;;9.17;8.33;;;14.90;99.90;;;;;;5053796;28;20281;-67
2023/11/11 08:22:47;;;;;;;8.80;8.00;;;14.90;99.90;;;;;;5051624;28;20393;-67
2023/11/11 08:25:12;;;;;;;9.97;8.20;;;15.10;99.90;;;;;;5054599;28;20406;-66
2023/11/11 08:27:43;;;;;;;9.23;7.10;;;15.20;99.90;;;;;;5053537;28;20477;-66
2023/11/11 08:30:12;;;;;;;9.27;8.47;;;15.40;99.90;;;;;;5036336;28;20176;-66
2023/11/11 08:32:42;;;;;;;8.00;7.17;;;15.50;99.90;;;;;;5053545;28;20555;-67
2023/11/11 08:35:08;;;;;;;8.43;6.33;;;15.50;99.90;;;;;;5054238;28;20423;-67
2023/11/11 08:37:34;;;;;;;7.27;6.67;;;15.50;99.90;;;;;;5053973;28;20825;-67
2023/11/11 08:40:06;;;;;;;8.27;7.40;;;15.60;99.90;;;;;;5036130;28;20536;-67
2023/11/11 08:42:35;;;;;;;8.03;7.13;;;15.60;99.90;;;;;;5053886;28;20187;-67
2023/11/11 08:45:01;;;;;;;7.47;6.77;;;15.60;99.90;;;;;;5054312;28;20458;-67
2023/11/11 08:47:27;;;;;;;7.47;6.87;;;15.50;99.90;;;;;;5042484;28;20439;-68
2023/11/11 08:49:56;;;;;;;7.80;7.10;;;15.60;99.90;;;;;;5054171;28;20449;-67
2023/11/11 08:52:22;;;;;;;7.20;6.60;;;15.50;99.90;;;;;;5052180;28;20443;-68
2023/11/11 08:54:50;;;;;;;7.97;7.27;;;15.50;99.90;;;;;;5054170;28;20504;-68
2023/11/11 08:57:17;;;;;;;7.70;7.00;;;15.50;99.90;;;;;;5054435;28;20413;-67
2023/11/11 08:59:42;;;;;;;8.20;7.40;;;15.50;99.90;;;;;;5054281;28;20450;-68
2023/11/11 09:02:09;;;;;;;7.83;7.10;;;15.40;99.90;;;;;;5052961;28;20410;-68
2023/11/11 09:04:35;;;;;;;8.00;7.30;;;15.40;99.90;;;;;;5053417;28;20170;-68
2023/11/11 09:07:02;;;;;;;8.70;7.13;;;15.40;99.90;;;;;;5053023;28;20457;-68
2023/11/11 09:09:29;;;;;;;437.63;259.30;;;15.30;99.90;;;;;;5052309;28;20808;-73
2023/11/11 09:11:56;;;;;;;387.67;242.53;;;15.30;99.90;;;;;;5052318;28;20428;-68
2023/11/11 09:14:22;;;;;;;26.40;21.03;;;15.30;99.90;;;;;;5051733;28;20427;-68
2023/11/11 09:16:48;;;;;;;11.47;10.30;;;15.40;99.90;;;;;;5052426;28;20808;-68
2023/11/11 09:19:14;;;;;;;10.53;9.53;;;15.40;99.90;;;;;;5018905;28;20460;-68
2023/11/11 09:21:40;;;;;;;14.77;13.27;;;15.50;99.90;;;;;;5052647;28;20227;-68
2023/11/11 09:24:09;;;;;;;9.00;8.20;;;15.60;99.90;;;;;;5051115;28;20169;-67
2023/11/11 09:26:35;;;;;;;10.90;9.83;;;15.60;99.90;;;;;;5051783;28;20287;-68
2023/11/11 09:29:01;;;;;;;12.17;10.90;;;15.70;99.90;;;;;;5053429;28;20460;-67
2023/11/11 09:31:28;;;;;;;8.23;7.50;;;15.80;99.90;;;;;;5051935;28;20255;-67
2023/11/11 09:34:00;;;;;;;7.60;6.80;;;15.80;99.90;;;;;;5035237;28;20431;-68
2023/11/11 09:36:29;;;;;;;11.70;8.93;;;15.90;99.20;;;;;;5034765;28;20433;-68
2023/11/11 09:38:56;;;;;;;8.43;7.63;;;15.90;99.40;;;;;;5033426;28;20448;-68
2023/11/11 09:41:22;;;;;;;8.30;7.60;;;15.90;99.90;;;;;;5033008;28;20408;-68
2023/11/11 09:43:49;;;;;;;8.57;7.97;;;15.90;99.90;;;;;;5050897;28;20821;-64
2023/11/11 09:46:16;;;;;;;7.80;7.10;;;16.00;98.40;;;;;;5048258;28;20461;-64
2023/11/11 09:48:45;;;;;;;8.50;7.70;;;15.80;96.10;;;;;;5044537;28;20427;-63
2023/11/11 09:51:12;;;;;;;9.23;7.93;;;15.30;96.10;;;;;;5053153;28;20932;-63
2023/11/11 09:53:41;;;;;;;9.07;8.27;;;14.70;97.70;;;;;;5046178;28;20475;-63
2023/11/11 09:56:09;;;;;;;11.40;7.90;;;14.20;98.70;;;;;;5044035;28;20520;-63
2023/11/11 09:58:35;;;;;;;9.40;8.60;;;13.80;99.90;;;;;;5035569;28;20451;-63
2023/11/11 10:01:01;;;;;;;9.27;8.20;;;13.40;99.90;;;;;;5049636;28;20760;-63
2023/11/11 10:03:27;;;;;;;9.17;8.27;;;13.20;99.90;;;;;;5038504;28;20429;-63
2023/11/11 10:05:54;;;;;;;14.23;9.47;;;12.90;99.90;;;;;;5050570;28;20177;-64
2023/11/11 10:08:24;;;;;;;10.43;9.33;;;12.60;99.90;;;;;;5049019;28;20437;-63
2023/11/11 10:10:52;;;;;;;9.83;7.87;;;12.40;99.90;;;;;;5051483;28;20435;-64
2023/11/11 10:13:19;;;;;;;703.40;448.77;;;12.20;99.90;;;;;;5052214;28;20854;-63
2023/11/11 10:15:45;;;;;;;250.07;159.73;;;12.00;99.90;;;;;;5069319;28;20505;-63
2023/11/11 10:18:14;;;;;;;12.43;11.13;;;11.90;99.90;;;;;;5073848;28;20427;-64
2023/11/11 10:20:44;;;;;;;7.10;6.40;;;11.80;99.90;;;;;;5072085;28;20419;-64
2023/11/11 10:23:15;;;;;;;7.30;6.60;;;11.70;99.90;;;;;;5067209;28;20519;-63
2023/11/11 10:25:41;;;;;;;7.77;7.07;;;11.70;99.90;;;;;;5080791;28;20427;-62
2023/11/11 10:28:15;;;;;;;7.80;7.10;;;11.60;99.90;;;;;;5090320;28;20429;-63
2023/11/11 10:30:42;;;;;;;7.90;7.20;;;11.50;99.90;;;;;;5089736;28;20166;-63
2023/11/11 10:33:10;;;;;;;7.10;6.47;;;11.40;99.90;;;;;;5089398;28;20453;-64
2023/11/11 10:35:36;;;;;;;7.60;6.90;;;11.40;99.90;;;;;;5088262;28;20554;-64
2023/11/11 10:38:02;;;;;;;6.57;5.97;;;11.40;99.90;;;;;;5064505;28;21011;-63
2023/11/11 10:40:28;;;;;;;6.43;5.93;;;11.30;99.90;;;;;;5051615;28;20316;-62
2023/11/11 10:42:54;;;;;;;8.83;6.07;;;11.20;99.90;;;;;;5052368;28;20454;-63
2023/11/11 10:45:20;;;;;;;6.97;6.30;;;11.10;99.90;;;;;;5034593;28;20887;-63
2023/11/11 10:47:47;;;;;;;6.07;5.67;;;11.10;99.90;;;;;;5051573;28;20166;-63
2023/11/11 10:50:14;;;;;;;6.63;5.70;;;11.00;99.90;;;;;;5052807;28;20176;-62
2023/11/11 10:52:41;;;;;;;8.70;6.13;;;10.90;99.90;;;;;;5058959;28;20415;-62
2023/11/11 10:55:11;;;;;;;7.40;6.70;;;11.00;99.90;;;;;;5053837;28;20434;-67
2023/11/11 10:57:41;;;;;;;6.30;5.80;;;10.80;99.90;;;;;;5045592;28;20420;-62
2023/11/11 11:00:19;;;;;;;7.57;6.67;;;11.00;99.90;;;;;;5068351;28;20954;-63
2023/11/11 11:02:47;;;;;;;466.67;249.90;;;10.90;99.90;;;;;;5063702;28;20428;-61
2023/11/11 11:05:19;;;;;;;59.23;38.10;;;10.80;99.90;;;;;;5034458;28;20396;-63
2023/11/11 11:07:54;;;;;;;6.83;6.23;;;11.00;99.90;;;;;;5091557;28;20413;-62
2023/11/11 11:10:32;;;;;;;6.80;6.20;;;10.90;99.90;;;;;;5070539;28;20432;-62
2023/11/11 11:13:03;;;;;;;6.80;6.20;;;11.00;99.90;;;;;;5053541;28;20433;-62
2023/11/11 11:15:38;;;;;;;6.97;6.27;;;11.00;99.90;;;;;;5050847;28;20864;-62
2023/11/11 11:18:08;;;;;;;9.67;6.63;;;10.90;99.90;;;;;;5051300;28;20545;-64
2023/11/11 11:20:34;;;;;;;7.50;6.63;;;11.00;99.90;;;;;;5050521;28;20507;-64
2023/11/11 11:23:00;;;;;;;6.73;6.03;;;11.10;99.90;;;;;;5051269;28;20975;-63
2023/11/11 11:25:44;;;;;;;6.83;6.27;;;11.20;99.90;;;;;;5050057;28;20203;-66
2023/11/11 11:28:10;;;;;;;6.70;6.00;;;11.30;99.90;;;;;;5050852;28;20504;-63
2023/11/11 11:30:56;;;;;;;5.80;5.20;;;11.30;99.90;;;;;;5051282;28;20819;-63
2023/11/11 11:33:23;;;;;;;7.53;5.33;;;11.30;99.90;;;;;;5033350;28;20591;-63
2023/11/11 11:35:56;;;;;;;6.40;5.90;;;11.20;99.90;;;;;;5032658;28;20890;-65
2023/11/11 11:38:39;;;;;;;6.40;5.40;;;11.30;99.90;;;;;;5049930;28;20829;-65
2023/11/11 11:41:12;;;;;;;5.90;5.13;;;11.50;99.90;;;;;;5032093;28;20437;-64
2023/11/11 11:43:40;;;;;;;4.80;4.50;;;11.40;99.90;;;;;;5039252;28;20391;-62
2023/11/11 11:46:07;;;;;;;5.33;4.93;;;11.40;99.90;;;;;;5055946;28;20420;-62
2023/11/11 11:48:36;;;;;;;5.40;4.90;;;11.30;99.90;;;;;;5036679;28;20416;-63
2023/11/11 11:51:18;;;;;;;10.33;5.10;;;11.40;99.90;;;;;;5053996;28;20436;-65
2023/11/11 11:53:46;;;;;;;5.30;4.80;;;11.30;99.90;;;;;;5051025;28;20401;-63
2023/11/11 11:56:34;;;;;;;5.23;4.73;;;11.20;99.90;;;;;;5053935;28;20425;-63
2023/11/11 11:59:03;;;;;;;6.37;5.70;;;11.30;99.90;;;;;;5034476;28;20447;-63
2023/11/11 12:01:34;;;;;;;6.90;5.70;;;11.30;99.90;;;;;;5036026;28;20444;-63
2023/11/11 12:04:00;;;;;;;6.03;5.50;;;11.30;99.90;;;;;;5054179;28;20428;-63
2023/11/11 12:06:27;;;;;;;6.53;5.93;;;11.30;99.90;;;;;;5054655;28;20508;-63
2023/11/11 12:08:54;;;;;;;7.93;6.30;;;11.60;99.90;;;;;;5054238;28;20420;-63
2023/11/11 12:11:32;;;;;;;8.57;5.70;;;11.70;99.90;;;;;;5041028;28;20614;-62
2023/11/11 12:14:08;;;;;;;5.87;5.30;;;11.70;99.90;;;;;;5054175;28;20474;-63
2023/11/11 12:16:42;;;;;;;6.17;5.03;;;11.80;99.90;;;;;;5054148;28;20450;-63
2023/11/11 12:19:16;;;;;;;6.80;6.00;;;11.80;99.90;;;;;;5053899;28;20564;-62
2023/11/11 12:21:47;;;;;;;6.20;5.70;;;11.80;99.90;;;;;;5035608;28;20424;-63
2023/11/11 12:24:18;;;;;;;5.67;5.17;;;11.80;99.90;;;;;;5035927;28;20396;-63
2023/11/11 12:26:48;;;;;;;7.90;5.23;;;11.80;99.90;;;;;;5036367;28;20770;-62
2023/11/11 12:29:15;;;;;;;11.13;6.10;;;11.90;99.90;;;;;;5053712;28;20480;-64
2023/11/11 12:31:47;;;;;;;6.97;5.50;;;12.00;99.90;;;;;;5053043;28;20404;-62
2023/11/11 12:34:17;;;;;;;6.10;5.00;;;12.10;99.90;;;;;;5036851;28;20418;-62
2023/11/11 12:36:43;;;;;;;5.30;4.80;;;12.10;99.90;;;;;;5052902;28;20431;-62
2023/11/11 12:39:09;;;;;;;7.10;5.37;;;12.10;99.90;;;;;;5053521;28;20512;-62
2023/11/11 12:41:38;;;;;;;5.37;4.83;;;12.20;99.90;;;;;;5054000;28;20807;-62